Airfield :
LOGIN :

Register | Disclaimer

   EN    FR    IT 

 










Legend :    VFR   Marginal VFR   IFR   Intensive IFR   Very Intensive IFR
Visi :
Ceiling :
>= 8 km
>= 3000ft
5 to 8 km
1000 to 3000 ft
1500m to 5 km
500 to 1000 ft
800 to 1500m
200 to 500 ft
< 800m
< 200 ft
Symbols :   Thunderstorms  Fog  Heavy snow  Heavy precipitations  Wind > 20 kt
SIGMETs :     Misc.  Thunderstorms  Icing  Turbulence  Mountain Waves  Volcanic Ashes







- Airport Elevation : 120 ft
- IATA code : MME
- Download approach charts


EGNV - Durham Tees valley

CURRENT METAR :
  • 240720Z 04006KT 360V070 3000 BR BKN006 09/08 Q0995

EXPIRED METARs :
  • 240650Z 04006KT 3000 BR BKN006 08/07 Q0995
  • 240620Z 03006KT 350V050 3000 BR BKN006 08/07 Q0995
  • 240550Z 07004KT 3500 BR BKN006 08/07 Q0995
  • 240520Z 05007KT 3500 BR BKN006 07/06 Q0995
  • 240450Z 02004KT 350V050 3500 HZ BKN006 07/06 Q0995

TAF TAF EGNV
Valid from the 24 at 06:00 until the 24 at 15:00 UTC


240551Z 2406/2415 05008KT 3000 BR BKN006
TEMPO 2406/2410 BKN003
BECMG 2410/2413 9999 NSW SCT040
PROB30
TEMPO 2414/2415 6000 SHRA
ATIS : +44 9012 018 111
No reported NOTAMs for that airfield.



MET'MAP, your aeronautical weather chart ! - Copyright ORBIFLY December 2007 - Disclaimer

ORBIFLY MET'MAP TEAM :

Programming & Development : Alexandra Zaïnal
Concept & Development : Baudouin d'Aumeries
Co-Development & Prog : Marc-Olivier Méhu
Technical & hardware support : Manuel Goepfert

Contact : metmap@orbifly.com




SOURCES & CREDITS :

   NOAA